Time;durP1;ratioP1;P1;durP2;ratioP2;P2;SDS_P1;SDS_P2;PMS_P1;PMS_P2;Temp;Humidity;BMP_temperature;BMP_pressure;BME280_temperature;BME280_humidity;BME280_pressure;Samples;Min_cycle;Max_cycle;Signal;HPM_P1;HPM_P2
2022/12/16 00:01:07;;;;;;;44.67;26.00;;;;;;;3.17;56.03;96179.84;5065716;28;20424;-69
2022/12/16 00:03:33;;;;;;;47.40;26.30;;;;;;;3.21;55.75;96184.63;5063941;28;20536;-70
2022/12/16 00:05:58;;;;;;;44.50;25.53;;;;;;;3.16;55.88;96179.00;5061632;28;20541;-70
2022/12/16 00:08:24;;;;;;;45.20;26.87;;;;;;;3.18;56.01;96182.28;5053828;28;20218;-70
2022/12/16 00:10:52;;;;;;;42.80;25.13;;;;;;;3.25;55.76;96177.41;5066685;28;20186;-70
2022/12/16 00:13:18;;;;;;;45.40;26.87;;;;;;;3.27;56.00;96166.94;5054224;28;20269;-71
2022/12/16 00:15:45;;;;;;;47.20;26.20;;;;;;;3.24;55.62;96173.19;5061922;28;20944;-70
2022/12/16 00:18:11;;;;;;;43.87;24.47;;;;;;;3.21;56.46;96176.06;5060873;28;20197;-70
2022/12/16 00:20:36;;;;;;;41.00;25.07;;;;;;;3.25;56.23;96181.78;5054745;28;20465;-70
2022/12/16 00:23:02;;;;;;;50.07;27.60;;;;;;;3.26;55.12;96179.06;5058702;28;20520;-71
2022/12/16 00:25:27;;;;;;;44.90;25.93;;;;;;;3.27;55.61;96170.34;5057688;28;20179;-70
2022/12/16 00:27:53;;;;;;;43.10;25.77;;;;;;;3.29;55.47;96173.63;5063975;28;20666;-70
2022/12/16 00:30:18;;;;;;;45.47;25.77;;;;;;;3.14;55.75;96180.94;5058579;28;20280;-70
2022/12/16 00:32:43;;;;;;;45.70;26.47;;;;;;;3.14;55.80;96173.16;5059569;28;20336;-70
2022/12/16 00:35:09;;;;;;;51.70;25.90;;;;;;;3.14;55.75;96180.09;5061557;28;20209;-70
2022/12/16 00:37:34;;;;;;;45.30;25.17;;;;;;;3.16;55.59;96181.59;5064731;28;20264;-69
2022/12/16 00:40:00;;;;;;;48.30;27.03;;;;;;;3.16;55.49;96186.78;5053178;28;20681;-71
2022/12/16 00:42:25;;;;;;;45.83;27.00;;;;;;;3.19;55.62;96191.69;5062461;28;20207;-70
2022/12/16 00:44:51;;;;;;;48.30;27.47;;;;;;;3.25;55.63;96176.59;5054739;28;20199;-70
2022/12/16 00:47:16;;;;;;;41.60;25.50;;;;;;;3.22;55.24;96193.19;5058058;28;20232;-70
2022/12/16 00:49:41;;;;;;;48.40;26.07;;;;;;;3.25;55.31;96192.94;5059272;28;20262;-70
2022/12/16 00:52:07;;;;;;;43.73;25.23;;;;;;;3.25;55.89;96192.13;5056273;28;20289;-70
2022/12/16 00:54:32;;;;;;;46.30;26.30;;;;;;;3.18;55.58;96192.66;5058084;28;20669;-70
2022/12/16 00:56:58;;;;;;;47.87;27.23;;;;;;;3.21;55.84;96192.41;5053853;28;20252;-69
2022/12/16 00:59:23;;;;;;;42.20;24.83;;;;;;;3.23;55.88;96194.84;5057857;28;20275;-69
2022/12/16 01:01:49;;;;;;;42.80;25.60;;;;;;;3.20;55.75;96189.94;5052211;28;20187;-70
2022/12/16 01:04:14;;;;;;;44.97;25.80;;;;;;;3.20;56.08;96201.09;5058048;28;20320;-70
2022/12/16 01:06:39;;;;;;;43.70;25.70;;;;;;;3.24;55.61;96206.84;5058024;28;20287;-70
2022/12/16 01:09:05;;;;;;;46.83;26.00;;;;;;;3.18;55.81;96207.38;5052369;28;20215;-69
2022/12/16 01:11:30;;;;;;;45.33;26.13;;;;;;;3.18;56.46;96215.94;5063909;28;20179;-70
2022/12/16 01:13:56;;;;;;;46.17;25.53;;;;;;;3.21;55.91;96210.53;5053023;28;20258;-71
2022/12/16 01:16:21;;;;;;;47.90;24.97;;;;;;;3.21;56.11;96218.28;5061691;28;20244;-69
2022/12/16 01:18:47;;;;;;;46.47;25.30;;;;;;;3.18;56.22;96215.94;5059203;28;20270;-70
2022/12/16 01:21:13;;;;;;;45.83;26.60;;;;;;;3.18;56.14;96222.91;5057467;28;20186;-70
2022/12/16 01:23:39;;;;;;;44.77;25.10;;;;;;;3.18;56.80;96215.16;5054337;28;20180;-71
2022/12/16 01:26:05;;;;;;;43.67;26.20;;;;;;;3.16;56.17;96224.81;5056690;28;20457;-71
2022/12/16 01:28:30;;;;;;;43.57;26.20;;;;;;;3.19;57.05;96224.56;5060300;28;20460;-70
2022/12/16 01:31:00;;;;;;;48.07;24.50;;;;;;;3.23;56.47;96223.31;5054884;28;20262;-70
2022/12/16 01:33:27;;;;;;;51.10;27.33;;;;;;;3.22;56.31;96225.13;5052030;28;20203;-71
2022/12/16 01:36:04;;;;;;;40.50;23.50;;;;;;;3.27;56.74;96227.31;5054983;28;20449;-71
2022/12/16 01:38:29;;;;;;;47.50;25.97;;;;;;;3.21;56.66;96226.06;5056780;28;20433;-70
2022/12/16 01:40:56;;;;;;;45.73;25.33;;;;;;;3.20;56.96;96221.81;5057448;28;20563;-70
2022/12/16 01:43:25;;;;;;;43.90;24.30;;;;;;;3.21;57.26;96228.66;5055947;28;20508;-69
2022/12/16 01:45:53;;;;;;;46.20;25.27;;;;;;;3.28;57.00;96243.66;5059996;28;20975;-71
2022/12/16 01:48:20;;;;;;;43.33;25.20;;;;;;;3.32;56.64;96245.03;5053970;28;20986;-71
2022/12/16 01:50:46;;;;;;;41.90;23.77;;;;;;;3.32;56.38;96239.88;5057224;28;20915;-71
2022/12/16 01:53:11;;;;;;;44.93;25.07;;;;;;;3.29;56.36;96243.53;5053093;28;20500;-72
2022/12/16 01:55:41;;;;;;;45.83;25.10;;;;;;;3.31;56.55;96243.41;5055791;28;20430;-71
2022/12/16 01:58:11;;;;;;;47.00;26.30;;;;;;;3.25;55.89;96249.91;5059248;28;20187;-71
2022/12/16 02:00:37;;;;;;;41.10;24.27;;;;;;;3.16;56.64;96248.91;5055003;28;20918;-72
2022/12/16 02:03:04;;;;;;;49.13;26.20;;;;;;;3.18;56.50;96254.78;5055156;28;20499;-71
2022/12/16 02:05:29;;;;;;;46.73;26.17;;;;;;;3.16;56.26;96261.88;5038610;28;20893;-70
2022/12/16 02:07:59;;;;;;;45.73;25.27;;;;;;;3.13;56.23;96262.16;5054864;28;20434;-70
2022/12/16 02:10:50;;;;;;;38.40;23.10;;;;;;;3.10;56.11;96265.00;5059174;28;20761;-70
2022/12/16 02:14:00;;;;;;;42.07;24.30;;;;;;;3.22;55.68;96261.38;5052402;28;20525;-70
2022/12/16 02:16:32;;;;;;;41.47;24.43;;;;;;;3.23;55.62;96257.84;5052586;28;20546;-70
2022/12/16 02:19:09;;;;;;;42.50;23.80;;;;;;;3.23;55.62;96257.00;5057456;28;20952;-70
2022/12/16 02:21:49;;;;;;;40.33;24.97;;;;;;;3.26;55.06;96261.91;5054990;28;20482;-70
2022/12/16 02:24:18;;;;;;;39.63;24.83;;;;;;;3.22;55.62;96270.88;5052135;28;20414;-70
2022/12/16 02:26:43;;;;;;;41.00;24.37;;;;;;;3.19;55.73;96266.78;5054584;28;20440;-70
2022/12/16 02:29:39;;;;;;;42.27;24.67;;;;;;;3.19;55.58;96268.56;5048822;28;20430;-71
2022/12/16 02:32:39;;;;;;;42.70;25.03;;;;;;;3.13;55.94;96262.16;5047223;28;20202;-69
2022/12/16 02:35:24;;;;;;;42.03;24.33;;;;;;;3.18;55.83;96257.38;5049301;28;20496;-70
2022/12/16 02:38:11;;;;;;;40.33;23.07;;;;;;;3.19;55.97;96266.78;5055115;28;20924;-70
2022/12/16 02:40:55;;;;;;;44.83;25.27;;;;;;;3.18;55.87;96259.97;5042335;28;20514;-69
2022/12/16 02:43:29;;;;;;;42.27;23.87;;;;;;;3.16;55.97;96267.03;5051168;28;20504;-69
2022/12/16 02:45:55;;;;;;;41.67;24.37;;;;;;;3.19;55.49;96259.03;5054611;28;20472;-70
2022/12/16 02:48:20;;;;;;;43.30;24.90;;;;;;;3.14;55.52;96271.56;5049945;28;20902;-70
2022/12/16 02:50:48;;;;;;;37.50;22.70;;;;;;;3.13;55.77;96269.06;5050555;28;20269;-71
2022/12/16 02:53:14;;;;;;;42.63;24.30;;;;;;;3.15;55.86;96280.94;5048860;28;20217;-69
2022/12/16 02:56:02;;;;;;;37.00;22.60;;;;;;;3.13;56.08;96271.66;5049421;28;20426;-69
2022/12/16 02:58:35;;;;;;;43.60;22.43;;;;;;;3.05;56.31;96282.66;5051926;28;20421;-71
2022/12/16 03:01:06;;;;;;;38.10;23.50;;;;;;;3.09;56.05;96291.81;5053006;28;20533;-71
2022/12/16 03:03:54;;;;;;;39.90;22.87;;;;;;;3.05;56.20;96295.59;5051136;28;20431;-70
2022/12/16 03:06:20;;;;;;;37.60;23.40;;;;;;;3.07;55.88;96299.72;5052632;28;20472;-69
2022/12/16 03:08:50;;;;;;;36.57;22.90;;;;;;;3.04;55.95;96299.13;5054384;28;20430;-70
2022/12/16 03:11:16;;;;;;;44.40;24.23;;;;;;;3.02;56.38;96291.50;5058381;28;20920;-70
2022/12/16 03:13:45;;;;;;;41.97;24.23;;;;;;;2.96;56.69;96291.19;5052942;28;20457;-70
2022/12/16 03:16:13;;;;;;;41.70;24.80;;;;;;;2.97;56.56;96292.84;5056620;28;20221;-71
2022/12/16 03:18:42;;;;;;;37.53;23.43;;;;;;;2.94;56.44;96287.91;5052916;28;21007;-68
2022/12/16 03:21:08;;;;;;;45.17;23.73;;;;;;;2.92;56.63;96290.63;5052835;28;20461;-69
2022/12/16 03:23:37;;;;;;;43.10;24.60;;;;;;;2.86;57.01;96291.97;5053093;28;20457;-70
2022/12/16 03:26:07;;;;;;;39.10;22.60;;;;;;;2.98;56.67;96310.81;5053883;28;20449;-70
2022/12/16 03:28:41;;;;;;;39.13;22.40;;;;;;;3.09;56.38;96301.38;5028283;28;20429;-69
2022/12/16 03:31:43;;;;;;;38.20;22.67;;;;;;;3.14;56.47;96307.81;5053064;28;20422;-71
2022/12/16 03:34:10;;;;;;;39.60;23.10;;;;;;;3.17;56.34;96312.72;5052449;28;20464;-68
2022/12/16 03:36:36;;;;;;;41.33;24.03;;;;;;;3.06;56.12;96315.38;5052196;28;20461;-71
2022/12/16 03:39:03;;;;;;;40.13;22.07;;;;;;;3.06;56.22;96317.97;5052514;28;20448;-69
2022/12/16 03:41:30;;;;;;;36.90;21.90;;;;;;;3.00;56.62;96310.72;5053881;28;20421;-70
2022/12/16 03:43:55;;;;;;;36.03;22.33;;;;;;;3.03;56.46;96313.03;5052516;28;20425;-69
2022/12/16 03:46:21;;;;;;;42.80;23.43;;;;;;;3.05;56.14;96313.72;5051489;28;20499;-68
2022/12/16 03:48:49;;;;;;;35.60;21.70;;;;;;;3.14;56.16;96325.94;5058370;28;20261;-69
2022/12/16 03:51:14;;;;;;;38.50;22.40;;;;;;;3.13;55.63;96326.88;5055357;28;20201;-70
2022/12/16 03:53:40;;;;;;;41.43;23.30;;;;;;;3.15;56.16;96334.50;5052198;28;20447;-70
2022/12/16 03:56:06;;;;;;;36.20;22.40;;;;;;;3.14;55.92;96335.44;5059169;28;20210;-70
2022/12/16 03:58:34;;;;;;;40.90;24.20;;;;;;;3.16;55.56;96333.56;5053187;28;20190;-70
2022/12/16 04:00:59;;;;;;;40.53;22.60;;;;;;;3.13;55.54;96334.66;5053322;28;20253;-69
2022/12/16 04:03:25;;;;;;;37.00;21.53;;;;;;;3.08;55.53;96326.44;5051827;28;20453;-69
2022/12/16 04:05:50;;;;;;;34.87;21.27;;;;;;;3.03;55.77;96331.16;5053381;28;20289;-70
2022/12/16 04:08:16;;;;;;;38.43;22.67;;;;;;;3.11;55.95;96335.69;5052715;28;20256;-70
2022/12/16 04:24:29;;;;;;;38.23;21.80;;;;;;;3.00;55.95;96345.19;5048558;28;20555;-70
2022/12/16 04:30:17;;;;;;;36.60;21.80;;;;;;;3.00;55.93;96354.72;5048405;28;20924;-70
2022/12/16 04:32:24;;;;;;;35.30;20.37;;;;;;;2.99;56.03;96358.25;5050222;28;20445;-70
2022/12/16 04:34:50;;;;;;;36.50;20.33;;;;;;;2.98;56.04;96356.63;5051137;28;20437;-70
